Time;durP1;ratioP1;P1;durP2;ratioP2;P2;SDS_P1;SDS_P2;PMS_P1;PMS_P2;Temp;Humidity;BMP_temperature;BMP_pressure;BME280_temperature;BME280_humidity;BME280_pressure;Samples;Min_cycle;Max_cycle;Signal;HPM_P1;HPM_P2
2022/08/01 00:01:12;;;;;;;;;;;;;;;;;;5112485;28;892;-68
2022/08/01 00:03:37;;;;;;;;;;;;;;;;;;5113539;28;911;-69
2022/08/01 00:06:03;;;;;;;;;;;;;;;;;;5110880;28;1163;-67
2022/08/01 00:08:28;;;;;;;;;;;;;;;;;;5110920;28;1412;-69
2022/08/01 00:10:53;;;;;;;;;;;;;;;;;;5112470;28;1127;-69
2022/08/01 00:13:18;;;;;;;;;;;;;;;;;;5111715;28;1976;-68
2022/08/01 00:15:44;;;;;;;;;;;;;;;;;;5112449;28;868;-69
2022/08/01 00:18:09;;;;;;;;;;;;;;;;;;5112264;28;876;-68
2022/08/01 00:20:34;;;;;;;;;;;;;;;;;;5111255;28;978;-68
2022/08/01 00:23:01;;;;;;;;;;;;;;;;;;5111039;28;1484;-68
2022/08/01 00:25:27;;;;;;;;;;;;;;;;;;5111710;28;995;-68
2022/08/01 00:27:53;;;;;;;;;;;;;;;;;;5112128;28;928;-68
2022/08/01 00:30:18;;;;;;;;;;;;;;;;;;5110427;28;836;-68
2022/08/01 00:32:43;;;;;;;;;;;;;;;;;;5110741;28;1897;-68
2022/08/01 00:35:09;;;;;;;;;;;;;;;;;;5110731;28;1202;-69
2022/08/01 00:37:34;;;;;;;;;;;;;;;;;;5111570;28;931;-68
2022/08/01 00:39:59;;;;;;;;;;;;;;;;;;5110544;28;1252;-68
2022/08/01 00:42:24;;;;;;;;;;;;;;;;;;5111497;28;865;-68
2022/08/01 00:44:50;;;;;;;;;;;;;;;;;;5110665;28;909;-68
2022/08/01 00:47:15;;;;;;;;;;;;;;;;;;5111600;28;904;-68
2022/08/01 00:49:40;;;;;;;;;;;;;;;;;;5093462;28;1283;-68
2022/08/01 00:52:06;;;;;;;;;;;;;;;;;;5110240;28;1909;-68
2022/08/01 00:54:31;;;;;;;;;;;;;;;;;;5110736;28;1292;-68
2022/08/01 00:56:57;;;;;;;;;;;;;;;;;;5112334;28;836;-69
2022/08/01 00:59:23;;;;;;;;;;;;;;;;;;5111332;28;981;-68
2022/08/01 01:01:49;;;;;;;;;;;;;;;;;;5111888;28;859;-68
2022/08/01 01:04:14;;;;;;;;;;;;;;;;;;5111502;28;947;-68
2022/08/01 01:06:56;;;;;;;;;;;;;;;;;;5110753;28;965;-68
2022/08/01 01:09:27;;;;;;;;;;;;;;;;;;5114938;28;847;-67
2022/08/01 01:11:52;;;;;;;;;;;;;;;;;;5115603;28;1052;-68
2022/08/01 01:14:28;;;;;;;;;;;;;;;;;;5115307;28;1973;-68
2022/08/01 01:16:54;;;;;;;;;;;;;;;;;;5114553;28;1388;-69
2022/08/01 01:19:23;;;;;;;;;;;;;;;;;;5114125;28;1169;-68
2022/08/01 01:22:07;;;;;;;;;;;;;;;;;;5115874;28;911;-69
2022/08/01 01:25:11;;;;;;;;;;;;;;;;;;5114376;28;1174;-68
2022/08/01 01:27:42;;;;;;;;;;;;;;;;;;5035511;28;1314;-68
2022/08/01 01:30:08;;;;;;;;;;;;;;;;;;5052190;28;841;-68
2022/08/01 01:32:37;;;;;;;;;;;;;;;;;;5083945;28;1897;-68
2022/08/01 01:35:06;;;;;;;;;;;;;;;;;;5115666;28;1053;-68
2022/08/01 01:37:33;;;;;;;;;;;;;;;;;;5115661;28;925;-69
2022/08/01 01:39:59;;;;;;;;;;;;;;;;;;5114911;28;1217;-69
2022/08/01 01:42:25;;;;;;;;;;;;;;;;;;5114280;28;1278;-68
2022/08/01 01:44:51;;;;;;;;;;;;;;;;;;5114773;28;1356;-68
2022/08/01 01:47:17;;;;;;;;;;;;;;;;;;5114350;28;1363;-68
2022/08/01 01:49:43;;;;;;;;;;;;;;;;;;5114493;28;836;-68
2022/08/01 01:52:09;;;;;;;;;;;;;;;;;;5115557;28;1905;-69
2022/08/01 01:54:39;;;;;;;;;;;;;;;;;;5114331;28;1186;-71
2022/08/01 01:57:05;;;;;;;;;;;;;;;;;;5114218;28;1292;-71
2022/08/01 01:59:32;;;;;;;;;;;;;;;;;;5115313;28;887;-71
2022/08/01 02:01:59;;;;;;;;;;;;;;;;;;5115752;28;840;-72
2022/08/01 02:04:25;;;;;;;;;;;;;;;;;;5114261;28;1251;-72
2022/08/01 02:06:51;;;;;;;;;;;;;;;;;;5115095;28;1039;-72
2022/08/01 02:09:18;;;;;;;;;;;;;;;;;;5096118;28;1387;-72
2022/08/01 02:11:44;;;;;;;;;;;;;;;;;;5114905;28;1040;-72
2022/08/01 02:14:10;;;;;;;;;;;;;;;;;;5114709;28;1913;-71
2022/08/01 02:16:36;;;;;;;;;;;;;;;;;;5115347;28;824;-71
2022/08/01 02:19:02;;;;;;;;;;;;;;;;;;5115279;28;845;-72
2022/08/01 02:21:37;;;;;;;;;;;;;;;;;;5114378;28;872;-71
2022/08/01 02:24:18;;;;;;;;;;;;;;;;;;5114128;28;955;-72
2022/08/01 02:26:47;;;;;;;;;;;;;;;;;;5115230;28;816;-72
2022/08/01 02:29:14;;;;;;;;;;;;;;;;;;5113691;28;1266;-72
2022/08/01 02:31:44;;;;;;;;;;;;;;;;;;5115517;27;852;-72
2022/08/01 02:34:12;;;;;;;;;;;;;;;;;;5115121;28;1968;-72
2022/08/01 02:36:38;;;;;;;;;;;;;;;;;;5115637;27;994;-71
2022/08/01 02:39:07;;;;;;;;;;;;;;;;;;5116110;28;907;-71
2022/08/01 02:41:37;;;;;;;;;;;;;;;;;;5116299;28;1384;-71
2022/08/01 02:44:04;;;;;;;;;;;;;;;;;;5116800;28;883;-71
2022/08/01 02:46:38;;;;;;;;;;;;;;;;;;5115122;28;903;-72
2022/08/01 02:49:05;;;;;;;;;;;;;;;;;;5114465;28;1166;-71
2022/08/01 02:51:31;;;;;;;;;;;;;;;;;;5115608;28;867;-72
2022/08/01 02:53:57;;;;;;;;;;;;;;;;;;5115803;28;1978;-71
2022/08/01 02:56:24;;;;;;;;;;;;;;;;;;5115104;28;895;-71
2022/08/01 02:58:51;;;;;;;;;;;;;;;;;;5115765;28;918;-71
2022/08/01 03:01:17;;;;;;;;;;;;;;;;;;5116071;28;883;-71
2022/08/01 03:03:43;;;;;;;;;;;;;;;;;;5114885;28;855;-71
2022/08/01 03:06:09;;;;;;;;;;;;;;;;;;5114007;28;931;-71
2022/08/01 03:08:35;;;;;;;;;;;;;;;;;;5114151;28;888;-72
2022/08/01 03:11:01;;;;;;;;;;;;;;;;;;5114188;28;1256;-72
2022/08/01 03:13:27;;;;;;;;;;;;;;;;;;5114015;28;1981;-72
2022/08/01 03:15:53;;;;;;;;;;;;;;;;;;5113054;28;1130;-72
2022/08/01 03:18:18;;;;;;;;;;;;;;;;;;5113790;28;1002;-72
2022/08/01 03:20:44;;;;;;;;;;;;;;;;;;5114360;28;828;-72
2022/08/01 03:23:11;;;;;;;;;;;;;;;;;;5113831;28;963;-71
2022/08/01 03:25:38;;;;;;;;;;;;;;;;;;5113509;28;1197;-72
2022/08/01 03:28:05;;;;;;;;;;;;;;;;;;5114073;28;914;-71
2022/08/01 03:30:32;;;;;;;;;;;;;;;;;;5113196;28;1383;-72
2022/08/01 03:32:57;;;;;;;;;;;;;;;;;;5114118;28;1897;-72
2022/08/01 03:35:26;;;;;;;;;;;;;;;;;;5114263;28;959;-72
2022/08/01 03:37:53;;;;;;;;;;;;;;;;;;5113539;28;1663;-71
2022/08/01 03:40:23;;;;;;;;;;;;;;;;;;5113821;28;934;-72
2022/08/01 03:42:52;;;;;;;;;;;;;;;;;;5113842;28;841;-71
2022/08/01 03:45:27;;;;;;;;;;;;;;;;;;5113136;28;1065;-71
2022/08/01 03:47:55;;;;;;;;;;;;;;;;;;5112802;28;927;-71
2022/08/01 03:50:22;;;;;;;;;;;;;;;;;;5112943;28;959;-71
2022/08/01 03:52:48;;;;;;;;;;;;;;;;;;5111553;28;1901;-71
2022/08/01 03:55:14;;;;;;;;;;;;;;;;;;5112799;28;829;-71
2022/08/01 03:57:40;;;;;;;;;;;;;;;;;;5113891;28;1066;-71
2022/08/01 04:00:08;;;;;;;;;;;;;;;;;;5113328;28;903;-71
2022/08/01 04:02:33;;;;;;;;;;;;;;;;;;5112034;28;1149;-71
2022/08/01 04:04:58;;;;;;;;;;;;;;;;;;5113186;28;963;-72
2022/08/01 04:07:25;;;;;;;;;;;;;;;;;;5113063;28;983;-71
2022/08/01 04:09:51;;;;;;;;;;;;;;;;;;5112159;28;1295;-72
2022/08/01 04:12:16;;;;;;;;;;;;;;;;;;5113070;28;1981;-72
2022/08/01 04:14:44;;;;;;;;;;;;;;;;;;5113415;28;919;-71
2022/08/01 04:17:09;;;;;;;;;;;;;;;;;;5111450;28;1145;-71
2022/08/01 04:19:35;;;;;;;;;;;;;;;;;;5113309;28;864;-71
2022/08/01 04:22:02;;;;;;;;;;;;;;;;;;5112808;28;899;-71
2022/08/01 04:24:29;;;;;;;;;;;;;;;;;;5112880;28;737;-71
2022/08/01 04:26:56;;;;;;;;;;;;;;;;;;5113072;28;853;-71
2022/08/01 04:29:22;;;;;;;;;;;;;;;;;;5112785;28;986;-71
2022/08/01 04:31:49;;;;;;;;;;;;;;;;;;5111988;28;1126;-71
2022/08/01 04:34:16;;;;;;;;;;;;;;;;;;5112730;28;1903;-72
2022/08/01 04:36:42;;;;;;;;;;;;;;;;;;5113265;28;970;-71
2022/08/01 04:39:08;;;;;;;;;;;;;;;;;;5113000;28;882;-71
2022/08/01 04:41:35;;;;;;;;;;;;;;;;;;5111529;28;1327;-72
2022/08/01 04:44:02;;;;;;;;;;;;;;;;;;5115934;28;898;-71
2022/08/01 04:46:28;;;;;;;;;;;;;;;;;;5116565;28;1237;-71
2022/08/01 04:48:54;;;;;;;;;;;;;;;;;;5118198;28;828;-71
2022/08/01 04:51:22;;;;;;;;;;;;;;;;;;5099723;28;1549;-71
2022/08/01 04:53:47;;;;;;;;;;;;;;;;;;5117072;28;1899;-71
2022/08/01 04:56:12;;;;;;;;;;;;;;;;;;5103150;28;1381;-71
2022/08/01 04:58:41;;;;;;;;;;;;;;;;;;5105155;27;1222;-71
2022/08/01 05:01:07;;;;;;;;;;;;;;;;;;5103680;28;1131;-71
2022/08/01 05:03:33;;;;;;;;;;;;;;;;;;5098464;28;1200;-71
2022/08/01 05:05:58;;;;;;;;;;;;;;;;;;5114457;28;1155;-71
2022/08/01 05:08:23;;;;;;;;;;;;;;;;;;5111386;28;1135;-71
2022/08/01 05:10:48;;;;;;;;;;;;;;;;;;5099239;28;1241;-71
2022/08/01 05:13:14;;;;;;;;;;;;;;;;;;5116166;28;1890;-71
2022/08/01 05:15:39;;;;;;;;;;;;;;;;;;5116823;28;891;-72
2022/08/01 05:18:04;;;;;;;;;;;;;;;;;;5114710;28;1233;-72
2022/08/01 05:20:29;;;;;;;;;;;;;;;;;;5102492;28;1164;-72
2022/08/01 05:22:55;;;;;;;;;;;;;;;;;;5108217;28;1345;-72
2022/08/01 05:25:20;;;;;;;;;;;;;;;;;;5101350;28;1223;-72
2022/08/01 05:27:46;;;;;;;;;;;;;;;;;;5097900;28;916;-72
2022/08/01 05:30:11;;;;;;;;;;;;;;;;;;5096593;28;904;-72
2022/08/01 05:32:38;;;;;;;;;;;;;;;;;;5095676;28;1967;-72
2022/08/01 05:35:03;;;;;;;;;;;;;;;;;;5097506;28;907;-71
2022/08/01 05:37:29;;;;;;;;;;;;;;;;;;5095418;28;1103;-68
2022/08/01 05:39:54;;;;;;;;;;;;;;;;;;5096250;28;845;-68
2022/08/01 05:42:19;;;;;;;;;;;;;;;;;;5094575;28;832;-68
2022/08/01 05:44:44;;;;;;;;;;;;;;;;;;5094486;28;849;-70
2022/08/01 05:47:09;;;;;;;;;;;;;;;;;;5095753;28;904;-68
2022/08/01 05:49:35;;;;;;;;;;;;;;;;;;5093972;28;991;-68
2022/08/01 05:52:01;;;;;;;;;;;;;;;;;;5096699;28;817;-68
2022/08/01 05:54:27;;;;;;;;;;;;;;;;;;5094796;28;1949;-68
2022/08/01 05:56:52;;;;;;;;;;;;;;;;;;5078232;28;1296;-68
2022/08/01 05:59:17;;;;;;;;;;;;;;;;;;5095419;28;1002;-68
2022/08/01 06:01:42;;;;;;;;;;;;;;;;;;5097193;28;840;-68
2022/08/01 06:04:08;;;;;;;;;;;;;;;;;;5109308;28;1106;-69
2022/08/01 06:06:33;;;;;;;;;;;;;;;;;;5095372;28;1042;-69
2022/08/01 06:08:58;;;;;;;;;;;;;;;;;;5096757;28;946;-69
2022/08/01 06:11:23;;;;;;;;;;;;;;;;;;5095234;28;1126;-69
2022/08/01 06:13:49;;;;;;;;;;;;;;;;;;5095854;28;1976;-69
2022/08/01 06:16:14;;;;;;;;;;;;;;;;;;5095360;28;912;-70
2022/08/01 06:18:40;;;;;;;;;;;;;;;;;;5096413;28;903;-70
2022/08/01 06:21:05;;;;;;;;;;;;;;;;;;5095766;28;825;-68
2022/08/01 06:23:30;;;;;;;;;;;;;;;;;;5095315;28;892;-69
2022/08/01 06:25:55;;;;;;;;;;;;;;;;;;5096147;28;962;-69
2022/08/01 06:28:21;;;;;;;;;;;;;;;;;;5096151;28;911;-69
2022/08/01 06:30:46;;;;;;;;;;;;;;;;;;5095715;28;863;-70
2022/08/01 06:33:12;;;;;;;;;;;;;;;;;;5093553;28;1902;-70
2022/08/01 06:35:37;;;;;;;;;;;;;;;;;;5096020;28;1252;-70
2022/08/01 06:38:02;;;;;;;;;;;;;;;;;;5077931;28;1389;-69
2022/08/01 06:40:28;;;;;;;;;;;;;;;;;;5094785;28;769;-69
2022/08/01 06:42:53;;;;;;;;;;;;;;;;;;5095679;28;1045;-69
2022/08/01 06:45:22;;;;;;;;;;;;;;;;;;5093897;28;1328;-69
2022/08/01 06:47:47;;;;;;;;;;;;;;;;;;5095435;28;927;-69
2022/08/01 06:50:14;;;;;;;;;;;;;;;;;;5094886;28;895;-70
2022/08/01 06:52:39;;;;;;;;;;;;;;;;;;5095602;28;1957;-69
2022/08/01 06:55:05;;;;;;;;;;;;;;;;;;5077385;28;1219;-69
2022/08/01 06:57:30;;;;;;;;;;;;;;;;;;5101543;28;1240;-69
2022/08/01 06:59:55;;;;;;;;;;;;;;;;;;5099372;28;1163;-69
2022/08/01 07:02:21;;;;;;;;;;;;;;;;;;5094547;28;1166;-70
2022/08/01 07:04:46;;;;;;;;;;;;;;;;;;5101222;28;1022;-69
2022/08/01 07:07:11;;;;;;;;;;;;;;;;;;5095141;28;943;-69
2022/08/01 07:09:37;;;;;;;;;;;;;;;;;;5096170;28;1022;-70
2022/08/01 07:12:03;;;;;;;;;;;;;;;;;;5094416;28;1412;-70
2022/08/01 07:14:28;;;;;;;;;;;;;;;;;;5095304;28;1976;-68
2022/08/01 07:16:53;;;;;;;;;;;;;;;;;;5096181;28;852;-69
2022/08/01 07:19:18;;;;;;;;;;;;;;;;;;5104408;28;1395;-69
2022/08/01 07:21:43;;;;;;;;;;;;;;;;;;5115234;28;948;-69
2022/08/01 07:24:10;;;;;;;;;;;;;;;;;;5115378;28;858;-70
2022/08/01 07:26:36;;;;;;;;;;;;;;;;;;5115180;28;768;-69
2022/08/01 07:29:02;;;;;;;;;;;;;;;;;;5108378;28;1202;-69
2022/08/01 07:31:27;;;;;;;;;;;;;;;;;;5100653;28;1123;-69
2022/08/01 07:33:53;;;;;;;;;;;;;;;;;;5097214;28;1973;-70
2022/08/01 07:36:19;;;;;;;;;;;;;;;;;;5114510;28;1159;-69
2022/08/01 07:38:45;;;;;;;;;;;;;;;;;;5114464;28;840;-69
2022/08/01 07:41:10;;;;;;;;;;;;;;;;;;5114641;28;1115;-69
2022/08/01 07:43:35;;;;;;;;;;;;;;;;;;5113379;28;1186;-69
2022/08/01 07:46:02;;;;;;;;;;;;;;;;;;5115221;28;801;-69
2022/08/01 07:48:27;;;;;;;;;;;;;;;;;;5114064;28;852;-69
2022/08/01 07:50:52;;;;;;;;;;;;;;;;;;5113442;28;840;-69
2022/08/01 07:53:18;;;;;;;;;;;;;;;;;;5113987;28;1992;-70
2022/08/01 07:55:43;;;;;;;;;;;;;;;;;;5114391;28;840;-70
2022/08/01 07:58:08;;;;;;;;;;;;;;;;;;5114549;28;998;-69
2022/08/01 08:00:33;;;;;;;;;;;;;;;;;;5114341;28;970;-69
2022/08/01 08:02:59;;;;;;;;;;;;;;;;;;5114270;28;983;-69
2022/08/01 08:05:24;;;;;;;;;;;;;;;;;;5113525;28;984;-70
2022/08/01 08:07:50;;;;;;;;;;;;;;;;;;5113713;28;975;-70
2022/08/01 08:10:15;;;;;;;;;;;;;;;;;;5113540;28;892;-70
2022/08/01 08:12:41;;;;;;;;;;;;;;;;;;5114009;28;1918;-70
2022/08/01 08:15:06;;;;;;;;;;;;;;;;;;5112366;28;1217;-70
2022/08/01 08:17:32;;;;;;;;;;;;;;;;;;5113070;28;876;-70
2022/08/01 08:19:57;;;;;;;;;;;;;;;;;;5113678;28;906;-70
2022/08/01 08:22:22;;;;;;;;;;;;;;;;;;5112492;28;962;-70
2022/08/01 08:24:47;;;;;;;;;;;;;;;;;;5114104;28;1046;-70
2022/08/01 08:27:13;;;;;;;;;;;;;;;;;;5095647;28;1131;-70
2022/08/01 08:29:39;;;;;;;;;;;;;;;;;;5111946;28;1213;-70
2022/08/01 08:32:04;;;;;;;;;;;;;;;;;;5113362;28;876;-70
2022/08/01 08:34:30;;;;;;;;;;;;;;;;;;5111890;28;1949;-70
2022/08/01 08:36:56;;;;;;;;;;;;;;;;;;5112802;28;1567;-70
2022/08/01 08:39:21;;;;;;;;;;;;;;;;;;5113593;28;844;-70
2022/08/01 08:41:47;;;;;;;;;;;;;;;;;;5112778;28;1008;-70
2022/08/01 08:44:12;;;;;;;;;;;;;;;;;;5113284;28;904;-70
2022/08/01 08:47:01;;;;;;;;;;;;;;;;;;5113979;28;925;-70
2022/08/01 08:49:28;;;;;;;;;;;;;;;;;;5109301;28;1300;-70
2022/08/01 08:51:56;;;;;;;;;;;;;;;;;;5112093;28;1276;-70
2022/08/01 08:54:23;;;;;;;;;;;;;;;;;;5111593;28;1906;-70
2022/08/01 08:56:49;;;;;;;;;;;;;;;;;;5113505;28;824;-70
2022/08/01 08:59:15;;;;;;;;;;;;;;;;;;5113017;28;832;-70
2022/08/01 09:01:41;;;;;;;;;;;;;;;;;;5113316;28;856;-70
2022/08/01 09:04:06;;;;;;;;;;;;;;;;;;5112217;28;1378;-70
2022/08/01 09:06:33;;;;;;;;;;;;;;;;;;5113776;28;1050;-70
2022/08/01 09:08:59;;;;;;;;;;;;;;;;;;5113781;28;844;-70
2022/08/01 09:11:24;;;;;;;;;;;;;;;;;;5112425;28;1292;-70
2022/08/01 09:14:02;;;;;;;;;;;;;;;;;;5111554;28;2056;-70
2022/08/01 09:16:31;;;;;;;;;;;;;;;;;;5112503;28;1016;-70
2022/08/01 09:19:07;;;;;;;;;;;;;;;;;;5112773;28;956;-70
2022/08/01 09:21:32;;;;;;;;;;;;;;;;;;5110961;28;1161;-70
2022/08/01 09:23:58;;;;;;;;;;;;;;;;;;5112165;28;1346;-71
2022/08/01 09:26:31;;;;;;;;;;;;;;;;;;5111543;28;816;-71
2022/08/01 09:28:57;;;;;;;;;;;;;;;;;;5112565;28;1365;-70
2022/08/01 09:31:26;;;;;;;;;;;;;;;;;;5120818;28;841;-70
2022/08/01 09:33:53;;;;;;;;;;;;;;;;;;5117985;28;1879;-70
2022/08/01 09:36:20;;;;;;;;;;;;;;;;;;5121723;28;1317;-70
2022/08/01 09:38:45;;;;;;;;;;;;;;;;;;5126186;28;887;-69
2022/08/01 09:41:11;;;;;;;;;;;;;;;;;;5098974;28;1282;-69
2022/08/01 09:43:36;;;;;;;;;;;;;;;;;;5114206;28;1242;-70
2022/08/01 09:46:11;;;;;;;;;;;;;;;;;;5099581;28;1278;-70
2022/08/01 09:48:39;;;;;;;;;;;;;;;;;;5095601;28;873;-70
2022/08/01 09:51:05;;;;;;;;;;;;;;;;;;5094511;28;1134;-69
2022/08/01 09:53:40;;;;;;;;;;;;;;;;;;5095712;28;1967;-69
2022/08/01 09:56:12;;;;;;;;;;;;;;;;;;5094300;28;1292;-70
2022/08/01 09:58:50;;;;;;;;;;;;;;;;;;5094746;28;970;-70
2022/08/01 10:01:15;;;;;;;;;;;;;;;;;;5094853;28;989;-70
2022/08/01 10:03:41;;;;;;;;;;;;;;;;;;5095559;28;947;-70
2022/08/01 10:06:19;;;;;;;;;;;;;;;;;;5076848;28;1331;-70
2022/08/01 10:08:46;;;;;;;;;;;;;;;;;;5077497;28;1208;-69
2022/08/01 10:11:12;;;;;;;;;;;;;;;;;;5095167;28;1215;-69
2022/08/01 10:13:37;;;;;;;;;;;;;;;;;;5094874;28;1905;-70
2022/08/01 10:16:05;;;;;;;;;;;;;;;;;;5095324;28;911;-69
2022/08/01 10:18:31;;;;;;;;;;;;;;;;;;5094278;28;900;-70
2022/08/01 10:20:57;;;;;;;;;;;;;;;;;;5095640;28;841;-70
2022/08/01 10:23:24;;;;;;;;;;;;;;;;;;5093952;28;1653;-69
2022/08/01 10:25:51;;;;;;;;;;;;;;;;;;5094970;28;837;-70
2022/08/01 10:28:18;;;;;;;;;;;;;;;;;;5094893;28;933;-70
2022/08/01 10:30:44;;;;;;;;;;;;;;;;;;5093655;28;891;-70
2022/08/01 10:33:10;;;;;;;;;;;;;;;;;;5076218;28;1906;-69
2022/08/01 10:35:36;;;;;;;;;;;;;;;;;;5094534;28;915;-70
2022/08/01 10:38:02;;;;;;;;;;;;;;;;;;5095006;28;858;-70
2022/08/01 10:40:28;;;;;;;;;;;;;;;;;;5093828;28;872;-70
2022/08/01 10:42:54;;;;;;;;;;;;;;;;;;5093056;28;903;-70
2022/08/01 10:45:20;;;;;;;;;;;;;;;;;;5093863;28;864;-70
2022/08/01 10:47:53;;;;;;;;;;;;;;;;;;5092765;28;1249;-70
2022/08/01 10:50:31;;;;;;;;;;;;;;;;;;5093567;28;865;-69
2022/08/01 10:53:13;;;;;;;;;;;;;;;;;;5093604;28;1905;-70
2022/08/01 10:55:52;;;;;;;;;;;;;;;;;;5093837;28;908;-70
2022/08/01 10:58:24;;;;;;;;;;;;;;;;;;5093472;28;848;-70
2022/08/01 11:01:09;;;;;;;;;;;;;;;;;;5093839;28;852;-71
2022/08/01 11:03:35;;;;;;;;;;;;;;;;;;5093083;28;948;-70
2022/08/01 11:06:03;;;;;;;;;;;;;;;;;;5092344;28;1263;-70
2022/08/01 11:08:30;;;;;;;;;;;;;;;;;;5093161;28;903;-70
2022/08/01 11:11:02;;;;;;;;;;;;;;;;;;5093121;28;1175;-70
2022/08/01 11:13:46;;;;;;;;;;;;;;;;;;5092985;28;1965;-70
2022/08/01 11:16:28;;;;;;;;;;;;;;;;;;5093398;28;999;-70
2022/08/01 11:18:53;;;;;;;;;;;;;;;;;;5093289;28;1010;-70
2022/08/01 11:21:19;;;;;;;;;;;;;;;;;;5091954;28;967;-70
2022/08/01 11:23:53;;;;;;;;;;;;;;;;;;5093107;28;833;-70
2022/08/01 11:26:19;;;;;;;;;;;;;;;;;;5092928;28;840;-70
2022/08/01 11:28:46;;;;;;;;;;;;;;;;;;5092761;28;880;-70
2022/08/01 11:31:15;;;;;;;;;;;;;;;;;;5091816;28;1285;-70
2022/08/01 11:33:41;;;;;;;;;;;;;;;;;;5101790;28;1972;-70
2022/08/01 11:36:09;;;;;;;;;;;;;;;;;;5097442;28;1222;-70
2022/08/01 11:38:35;;;;;;;;;;;;;;;;;;5088248;28;1233;-70
2022/08/01 11:41:09;;;;;;;;;;;;;;;;;;5092630;28;848;-70
2022/08/01 11:43:34;;;;;;;;;;;;;;;;;;5091274;28;1146;-69
2022/08/01 11:46:00;;;;;;;;;;;;;;;;;;5092645;28;974;-70
2022/08/01 11:48:26;;;;;;;;;;;;;;;;;;5091370;28;857;-70
2022/08/01 11:50:52;;;;;;;;;;;;;;;;;;5091510;28;1258;-70
2022/08/01 11:53:19;;;;;;;;;;;;;;;;;;5092322;28;1902;-70
2022/08/01 11:55:50;;;;;;;;;;;;;;;;;;5091932;28;943;-69
2022/08/01 11:58:20;;;;;;;;;;;;;;;;;;5091423;28;830;-71
2022/08/01 12:00:52;;;;;;;;;;;;;;;;;;5092407;28;1330;-70
2022/08/01 12:03:22;;;;;;;;;;;;;;;;;;5093190;28;884;-70
2022/08/01 12:05:48;;;;;;;;;;;;;;;;;;5091859;28;1365;-70
2022/08/01 12:08:23;;;;;;;;;;;;;;;;;;5074556;28;1199;-70
2022/08/01 12:10:49;;;;;;;;;;;;;;;;;;5091490;28;1139;-70
2022/08/01 12:13:14;;;;;;;;;;;;;;;;;;5092423;28;1979;-70
2022/08/01 12:15:39;;;;;;;;;;;;;;;;;;5092333;28;912;-70
2022/08/01 12:18:06;;;;;;;;;;;;;;;;;;5092711;28;895;-70
2022/08/01 12:20:35;;;;;;;;;;;;;;;;;;5092893;28;992;-70
2022/08/01 12:23:01;;;;;;;;;;;;;;;;;;5092392;28;915;-70
2022/08/01 12:25:27;;;;;;;;;;;;;;;;;;5091937;28;1065;-70
2022/08/01 12:27:52;;;;;;;;;;;;;;;;;;5092091;28;978;-70
2022/08/01 12:30:18;;;;;;;;;;;;;;;;;;5091807;28;914;-70
2022/08/01 12:32:45;;;;;;;;;;;;;;;;;;5090919;28;1981;-70
2022/08/01 12:35:11;;;;;;;;;;;;;;;;;;5090801;28;1329;-70
2022/08/01 12:37:37;;;;;;;;;;;;;;;;;;5091849;28;828;-70
2022/08/01 12:40:13;;;;;;;;;;;;;;;;;;5073969;28;1433;-70
2022/08/01 12:42:39;;;;;;;;;;;;;;;;;;5091727;28;911;-70
2022/08/01 12:45:06;;;;;;;;;;;;;;;;;;5090717;28;1330;-70
2022/08/01 12:47:32;;;;;;;;;;;;;;;;;;5091583;28;1062;-70
2022/08/01 12:49:57;;;;;;;;;;;;;;;;;;5073632;28;1225;-71
2022/08/01 12:52:22;;;;;;;;;;;;;;;;;;5091844;28;970;-70
2022/08/01 12:55:20;;;;;;;;;;;;;;;;;;5091793;28;1901;-70
2022/08/01 12:57:52;;;;;;;;;;;;;;;;;;5068510;28;1212;-70
2022/08/01 13:00:25;;;;;;;;;;;;;;;;;;5091388;28;964;-70
2022/08/01 13:03:00;;;;;;;;;;;;;;;;;;5090576;28;1106;-70
2022/08/01 13:05:26;;;;;;;;;;;;;;;;;;5094854;28;898;-69
2022/08/01 13:07:51;;;;;;;;;;;;;;;;;;5096092;28;875;-69
2022/08/01 13:10:25;;;;;;;;;;;;;;;;;;5094850;28;879;-69
2022/08/01 13:12:52;;;;;;;;;;;;;;;;;;5095754;28;1977;-69
2022/08/01 13:15:18;;;;;;;;;;;;;;;;;;5095170;28;848;-69
2022/08/01 13:17:44;;;;;;;;;;;;;;;;;;5095949;28;1076;-69
2022/08/01 13:20:09;;;;;;;;;;;;;;;;;;5095001;28;825;-70
2022/08/01 13:22:35;;;;;;;;;;;;;;;;;;5095364;28;990;-70
2022/08/01 13:25:11;;;;;;;;;;;;;;;;;;5094141;28;1230;-69
2022/08/01 13:27:36;;;;;;;;;;;;;;;;;;5094586;28;1229;-69
2022/08/01 13:30:12;;;;;;;;;;;;;;;;;;5095409;28;935;-70
2022/08/01 13:32:37;;;;;;;;;;;;;;;;;;5094114;28;1909;-70
2022/08/01 13:35:07;;;;;;;;;;;;;;;;;;5094954;28;1045;-70
2022/08/01 13:37:33;;;;;;;;;;;;;;;;;;5095289;28;1025;-69
2022/08/01 13:39:58;;;;;;;;;;;;;;;;;;5094431;28;923;-69
2022/08/01 13:42:25;;;;;;;;;;;;;;;;;;5077257;28;1240;-69
2022/08/01 13:44:51;;;;;;;;;;;;;;;;;;5095564;28;950;-69
2022/08/01 13:47:16;;;;;;;;;;;;;;;;;;5095017;28;942;-69
2022/08/01 13:49:41;;;;;;;;;;;;;;;;;;5096201;28;833;-69
2022/08/01 13:52:07;;;;;;;;;;;;;;;;;;5094457;28;1154;-69
2022/08/01 13:54:32;;;;;;;;;;;;;;;;;;5095256;28;1906;-69
2022/08/01 13:56:58;;;;;;;;;;;;;;;;;;5095653;28;903;-69
2022/08/01 13:59:23;;;;;;;;;;;;;;;;;;5094496;28;844;-69
2022/08/01 14:01:49;;;;;;;;;;;;;;;;;;5093821;28;1122;-69
2022/08/01 14:04:14;;;;;;;;;;;;;;;;;;5093303;28;1348;-69
2022/08/01 14:06:39;;;;;;;;;;;;;;;;;;5095276;28;951;-69
2022/08/01 14:09:05;;;;;;;;;;;;;;;;;;5094190;28;828;-69
2022/08/01 14:11:30;;;;;;;;;;;;;;;;;;5094539;28;1068;-69
2022/08/01 14:13:56;;;;;;;;;;;;;;;;;;5093645;28;1905;-69
2022/08/01 14:16:21;;;;;;;;;;;;;;;;;;5093300;28;840;-69
2022/08/01 14:18:46;;;;;;;;;;;;;;;;;;5095007;28;845;-69
2022/08/01 14:21:12;;;;;;;;;;;;;;;;;;5094519;28;958;-70
2022/08/01 14:23:38;;;;;;;;;;;;;;;;;;5093070;28;1178;-70
2022/08/01 14:26:03;;;;;;;;;;;;;;;;;;5093442;28;916;-69
2022/08/01 14:28:29;;;;;;;;;;;;;;;;;;5093910;28;844;-69
2022/08/01 14:30:55;;;;;;;;;;;;;;;;;;5094603;28;907;-69
2022/08/01 14:33:21;;;;;;;;;;;;;;;;;;5093677;28;1911;-69
2022/08/01 14:35:46;;;;;;;;;;;;;;;;;;5093344;28;879;-68
2022/08/01 14:38:12;;;;;;;;;;;;;;;;;;5093724;28;824;-69
2022/08/01 14:40:37;;;;;;;;;;;;;;;;;;5094326;28;833;-69
2022/08/01 14:43:03;;;;;;;;;;;;;;;;;;5092988;28;1297;-69
2022/08/01 14:45:28;;;;;;;;;;;;;;;;;;5093738;28;971;-69
2022/08/01 14:47:54;;;;;;;;;;;;;;;;;;5092943;28;1335;-69
2022/08/01 14:50:19;;;;;;;;;;;;;;;;;;5093691;28;880;-69
2022/08/01 14:52:45;;;;;;;;;;;;;;;;;;5094015;28;1964;-70
2022/08/01 14:55:11;;;;;;;;;;;;;;;;;;5093625;28;832;-70
2022/08/01 14:57:37;;;;;;;;;;;;;;;;;;5092480;28;821;-69
2022/08/01 15:00:06;;;;;;;;;;;;;;;;;;5093747;28;1017;-69
2022/08/01 15:02:32;;;;;;;;;;;;;;;;;;5091970;28;1383;-70
2022/08/01 15:04:57;;;;;;;;;;;;;;;;;;5093620;28;1521;-70
2022/08/01 15:07:22;;;;;;;;;;;;;;;;;;5093207;28;951;-69
2022/08/01 15:09:47;;;;;;;;;;;;;;;;;;5093444;28;990;-70
2022/08/01 15:12:13;;;;;;;;;;;;;;;;;;5091699;28;1261;-70
2022/08/01 15:14:47;;;;;;;;;;;;;;;;;;5093219;28;1905;-70
2022/08/01 15:17:13;;;;;;;;;;;;;;;;;;5093887;28;896;-69
2022/08/01 15:19:38;;;;;;;;;;;;;;;;;;5092255;28;1190;-69
2022/08/01 15:22:03;;;;;;;;;;;;;;;;;;5093607;28;900;-70
2022/08/01 15:24:28;;;;;;;;;;;;;;;;;;5093088;28;884;-70
2022/08/01 15:26:54;;;;;;;;;;;;;;;;;;5092871;28;932;-70
2022/08/01 15:29:19;;;;;;;;;;;;;;;;;;5093113;28;995;-70
2022/08/01 15:31:45;;;;;;;;;;;;;;;;;;5094072;28;880;-70
2022/08/01 15:34:10;;;;;;;;;;;;;;;;;;5093683;28;1960;-70
2022/08/01 15:36:36;;;;;;;;;;;;;;;;;;5092011;28;904;-69
2022/08/01 15:39:01;;;;;;;;;;;;;;;;;;5093767;28;849;-69
2022/08/01 15:41:27;;;;;;;;;;;;;;;;;;5091724;28;1218;-70
2022/08/01 15:43:52;;;;;;;;;;;;;;;;;;5093812;28;849;-69
2022/08/01 15:46:17;;;;;;;;;;;;;;;;;;5091205;28;896;-70
2022/08/01 15:48:42;;;;;;;;;;;;;;;;;;5093044;28;915;-70
2022/08/01 15:51:08;;;;;;;;;;;;;;;;;;5092892;28;848;-69
2022/08/01 15:53:33;;;;;;;;;;;;;;;;;;5092303;28;1902;-69
2022/08/01 15:55:59;;;;;;;;;;;;;;;;;;5086218;28;1422;-69
2022/08/01 15:58:24;;;;;;;;;;;;;;;;;;5091232;28;1381;-69
2022/08/01 16:00:49;;;;;;;;;;;;;;;;;;5092647;28;1163;-69
2022/08/01 16:03:14;;;;;;;;;;;;;;;;;;5092675;28;1159;-69
2022/08/01 16:05:39;;;;;;;;;;;;;;;;;;5091057;28;1162;-70
2022/08/01 16:08:05;;;;;;;;;;;;;;;;;;5091443;28;1170;-69
2022/08/01 16:10:30;;;;;;;;;;;;;;;;;;5092271;28;869;-69
2022/08/01 16:12:55;;;;;;;;;;;;;;;;;;5091243;28;1909;-69
2022/08/01 16:15:21;;;;;;;;;;;;;;;;;;5092086;28;931;-69
2022/08/01 16:17:46;;;;;;;;;;;;;;;;;;5092248;28;845;-69
2022/08/01 16:20:11;;;;;;;;;;;;;;;;;;5082168;28;1448;-69
2022/08/01 16:22:36;;;;;;;;;;;;;;;;;;5086032;28;1690;-70
2022/08/01 16:25:03;;;;;;;;;;;;;;;;;;5077028;28;2117;-69
2022/08/01 16:27:30;;;;;;;;;;;;;;;;;;5089233;28;1186;-70
2022/08/01 16:29:55;;;;;;;;;;;;;;;;;;5088085;28;1949;-69
2022/08/01 16:32:20;;;;;;;;;;;;;;;;;;5109517;28;996;-69
2022/08/01 16:34:46;;;;;;;;;;;;;;;;;;5089956;28;1935;-69
2022/08/01 16:37:11;;;;;;;;;;;;;;;;;;5111134;28;1032;-70
2022/08/01 16:39:37;;;;;;;;;;;;;;;;;;5110768;28;868;-68
2022/08/01 16:42:02;;;;;;;;;;;;;;;;;;5097305;28;1613;-69
2022/08/01 16:44:27;;;;;;;;;;;;;;;;;;5091361;28;892;-69
2022/08/01 16:46:53;;;;;;;;;;;;;;;;;;5091936;28;931;-69
2022/08/01 16:49:18;;;;;;;;;;;;;;;;;;5090486;28;844;-69
2022/08/01 16:51:43;;;;;;;;;;;;;;;;;;5090257;28;1186;-69
2022/08/01 16:54:08;;;;;;;;;;;;;;;;;;5090884;28;1893;-69
2022/08/01 16:56:34;;;;;;;;;;;;;;;;;;5091237;28;887;-69
2022/08/01 16:58:59;;;;;;;;;;;;;;;;;;5092101;28;852;-69
2022/08/01 17:01:24;;;;;;;;;;;;;;;;;;5090264;28;853;-69
2022/08/01 17:03:50;;;;;;;;;;;;;;;;;;5091950;28;813;-69
2022/08/01 17:06:15;;;;;;;;;;;;;;;;;;5092341;28;946;-69
2022/08/01 17:08:40;;;;;;;;;;;;;;;;;;5091521;28;836;-70
2022/08/01 17:11:05;;;;;;;;;;;;;;;;;;5092376;28;1106;-70